Terminal Aerodrome Forecast
Issued by NWS

Home | Current Version | Previous Version | Text Only | Print | Product List | Glossary On
Versions: 1 2 3 4 5 6 7 8 9 10 11 12 13 14
000
FTUS41 KBTV 221700
TAFMSS
TAF
KMSS 221720Z 2218/2318 24008KT P6SM FEW040
     FM230000 22004KT P6SM SKC
     FM231000 22008KT P6SM SCT100
     FM231300 23011KT P6SM BKN060
     FM231500 25011KT 6SM -SHRA BR OVC045=

USA.gov is the U.S. government's official web portal to all federal, state and local government web resources and services.